Main page
METAR-TAF:

METAR-TAF

Airports :

Chongqing Jiangbei International Airport

Chongqing, China

latitude: 29-31N, longitude: 106-29E, elevation: 351 m

Current weather observation

The report was made 29 minutes ago, at 05:00 UTC
Wind 4 kt from the East, varying between North/Northeast and South/Southeast
Temperature 14°C
Humidity 55%
Pressure 1033 hPa
Visibility: 7000 m

METAR: ZUCK 060500Z 08002MPS 020V160 7000 NSC 14/05 Q1033 NOSIG

Time: 13:29 (05:29 UTC)

Forecast

The report was made 10 hours and 20 minutes ago, at 19:09 UTC
Forecast valid from 06 at 00 UTC to 06 at 24 UTC
Wind 4 kt from the North
Visibility: 3500 m
mist

TAF: ZUCK 051909Z 0600/0624 01002MPS 3500 BR NSC TX14/0606Z TN06/0622Z

Weather observations and forecasts of more than 4000 airports (METAR and TAF reports).

The available stations are represented by yellow and red dots on the map.

Hover mouse over dot to see the name of the station.

Then click to see weather observations and forecasts.

To change the map : click on the green buttons with a black cross to zoom in, on the green button with a dash to zoom out, or on the green arrows for adjacent maps.


METAR-TAF: